createdAt,value
2018-06-05T00:11:24.090Z,46.67
2018-06-05T00:13:53.093Z,53.60
2018-06-05T00:16:21.564Z,52.23
2018-06-05T00:18:50.006Z,59.63
2018-06-05T00:21:18.753Z,57.90
2018-06-05T00:23:47.208Z,52.63
2018-06-05T00:26:15.823Z,59.20
2018-06-05T00:28:44.949Z,56.53
2018-06-05T00:31:13.385Z,58.80
2018-06-05T00:33:42.517Z,65.53
2018-06-05T00:36:11.038Z,65.63
2018-06-05T00:38:39.493Z,63.67
2018-06-05T00:41:08.132Z,71.13
2018-06-05T00:43:36.596Z,71.27
2018-06-05T00:46:05.061Z,73.47
2018-06-05T00:48:33.493Z,76.33
2018-06-05T00:51:08.979Z,75.13
2018-06-05T00:53:37.418Z,69.47
2018-06-05T00:56:06.825Z,65.93
2018-06-05T00:58:35.387Z,73.97
2018-06-05T01:01:04.373Z,72.20
2018-06-05T01:03:33.461Z,68.40
2018-06-05T01:06:01.938Z,68.97
2018-06-05T01:08:30.417Z,68.37
2018-06-05T01:10:58.855Z,68.83
2018-06-05T01:13:27.634Z,68.27
2018-06-05T01:15:56.525Z,70.17
2018-06-05T01:18:25.073Z,65.90
2018-06-05T01:20:54.436Z,71.17
2018-06-05T01:23:23.252Z,59.40
2018-06-05T01:25:51.993Z,63.93
2018-06-05T01:28:20.461Z,58.33
2018-06-05T01:30:48.938Z,61.77
2018-06-05T01:33:17.537Z,60.57
2018-06-05T01:35:45.968Z,68.73
2018-06-05T01:38:14.901Z,58.77
2018-06-05T01:40:43.334Z,59.37
2018-06-05T01:43:11.757Z,60.30
2018-06-05T01:45:40.214Z,63.07
2018-06-05T01:48:08.996Z,60.30
2018-06-05T01:50:37.473Z,65.57
2018-06-05T01:53:06.157Z,61.83
2018-06-05T01:55:35.200Z,61.03
2018-06-05T01:58:03.833Z,60.90
2018-06-05T02:00:32.896Z,61.97
2018-06-05T02:03:01.753Z,68.03
2018-06-05T02:05:32.116Z,58.77
2018-06-05T02:08:00.905Z,60.53
2018-06-05T02:10:30.293Z,57.43
2018-06-05T02:12:59.156Z,60.60
2018-06-05T02:15:27.674Z,61.97
2018-06-05T02:17:56.129Z,65.47
2018-06-05T02:20:24.629Z,61.10
2018-06-05T02:22:53.104Z,57.23
2018-06-05T02:25:21.681Z,63.07
2018-06-05T02:27:52.107Z,62.50
2018-06-05T02:30:21.346Z,59.53
2018-06-05T02:32:50.485Z,62.87
2018-06-05T02:35:20.128Z,61.73
2018-06-05T02:37:49.065Z,60.63
2018-06-05T02:40:18.292Z,63.30
2018-06-05T02:42:47.046Z,63.10
2018-06-05T02:45:15.820Z,62.97
2018-06-05T02:47:45.134Z,65.33
2018-06-05T02:50:14.252Z,63.70
2018-06-05T02:52:43.274Z,66.23
2018-06-05T02:55:13.041Z,66.13
2018-06-05T02:57:42.302Z,66.50
2018-06-05T03:00:11.429Z,73.57
2018-06-05T03:02:40.322Z,67.73
2018-06-05T03:05:09.875Z,73.03
2018-06-05T03:07:38.729Z,70.77
2018-06-05T03:10:07.441Z,71.27
2018-06-05T03:12:36.756Z,71.50
2018-06-05T03:15:06.392Z,70.73
2018-06-05T03:17:35.498Z,75.73
2018-06-05T03:20:04.703Z,66.20
2018-06-05T03:22:34.868Z,67.73
2018-06-05T03:25:03.808Z,70.40
2018-06-05T03:27:33.199Z,70.10
2018-06-05T03:30:02.706Z,72.10
2018-06-05T03:32:31.772Z,73.30
2018-06-05T03:35:00.943Z,69.70
2018-06-05T03:37:30.706Z,68.40
2018-06-05T03:40:00.097Z,67.40
2018-06-05T03:42:29.362Z,69.97
2018-06-05T03:44:58.742Z,71.20
2018-06-05T03:57:12.897Z,73.20
2018-06-05T03:59:42.152Z,76.67
2018-06-05T04:02:11.865Z,75.07
2018-06-05T04:04:43.185Z,81.77
2018-06-05T04:07:12.686Z,77.83
2018-06-05T04:09:41.718Z,78.47
2018-06-05T04:12:11.135Z,74.37
2018-06-05T04:14:40.516Z,79.83
2018-06-05T04:17:09.796Z,79.13
2018-06-05T04:19:40.442Z,75.93
2018-06-05T04:22:11.933Z,76.30
2018-06-05T04:24:41.031Z,74.83
2018-06-05T04:27:10.810Z,77.10
2018-06-05T04:29:39.913Z,75.37
2018-06-05T04:32:09.399Z,77.07
2018-06-05T04:34:38.778Z,76.10
2018-06-05T04:37:09.276Z,69.03
2018-06-05T04:39:38.689Z,68.57
2018-06-05T04:42:07.748Z,67.03
2018-06-05T04:44:36.967Z,69.50
2018-06-05T04:47:06.450Z,67.93
2018-06-05T04:49:35.889Z,69.00
2018-06-05T04:52:04.848Z,66.83
2018-06-05T04:54:33.944Z,66.60
2018-06-05T04:57:02.843Z,65.97
2018-06-05T04:59:32.589Z,66.30
2018-06-05T05:02:01.548Z,71.57
2018-06-05T05:04:31.144Z,65.53
2018-06-05T05:07:01.621Z,63.53
2018-06-05T05:09:30.441Z,64.57
2018-06-05T05:11:59.486Z,58.17
2018-06-05T05:14:28.916Z,64.00
2018-06-05T05:16:59.275Z,70.20
2018-06-05T05:19:29.222Z,59.50
2018-06-05T05:21:58.414Z,65.40
2018-06-05T05:24:27.701Z,61.27
2018-06-05T05:26:57.329Z,61.43
2018-06-05T05:29:26.836Z,62.23
2018-06-05T05:31:55.981Z,61.03
2018-06-05T05:34:24.881Z,50.13
2018-06-05T05:36:54.792Z,54.07
2018-06-05T05:39:24.098Z,54.50
2018-06-05T05:41:53.150Z,61.20
2018-06-05T05:44:22.426Z,50.83
2018-06-05T05:46:51.899Z,53.53
2018-06-05T05:49:20.882Z,53.23
2018-06-05T05:51:54.368Z,47.27
2018-06-05T05:54:23.295Z,51.30
2018-06-05T05:56:53.351Z,50.90
2018-06-05T05:59:22.700Z,53.73
2018-06-05T06:01:52.042Z,53.43
2018-06-05T06:04:21.487Z,52.93
2018-06-05T06:06:50.975Z,55.53
2018-06-05T06:09:21.059Z,49.83
2018-06-05T06:11:51.301Z,47.30
2018-06-05T06:14:20.265Z,47.90
2018-06-05T06:16:50.089Z,52.63
2018-06-05T06:19:19.132Z,52.17
2018-06-05T06:21:48.864Z,52.50
2018-06-05T06:24:18.435Z,50.87
2018-06-05T06:26:48.099Z,46.23
2018-06-05T06:29:17.547Z,41.43
2018-06-05T06:31:46.523Z,41.20
2018-06-05T06:34:15.349Z,43.13
2018-06-05T06:36:44.242Z,41.07
2018-06-05T06:39:13.058Z,35.43
2018-06-05T06:41:43.810Z,39.47
2018-06-05T06:44:12.933Z,41.67
2018-06-05T06:46:41.702Z,43.47
2018-06-05T06:49:10.946Z,44.50
2018-06-05T06:51:39.400Z,43.30
2018-06-05T06:54:08.627Z,44.97
2018-06-05T06:56:37.824Z,44.20
2018-06-05T06:59:07.852Z,37.43
2018-06-05T07:01:37.141Z,37.77
2018-06-05T07:04:06.181Z,43.33
2018-06-05T07:06:35.165Z,42.97
2018-06-05T07:09:06.120Z,39.97
2018-06-05T07:11:35.201Z,41.90
2018-06-05T07:14:05.401Z,36.33
2018-06-05T07:16:34.640Z,38.47
2018-06-05T07:19:04.633Z,40.47
2018-06-05T07:21:33.438Z,40.00
2018-06-05T07:24:02.707Z,40.30
2018-06-05T07:26:31.802Z,36.77
2018-06-05T07:29:01.417Z,43.17
2018-06-05T07:31:30.237Z,44.00
2018-06-05T07:33:59.283Z,45.87
2018-06-05T07:36:28.432Z,43.07
2018-06-05T07:38:57.749Z,42.20
2018-06-05T07:41:28.476Z,44.23
2018-06-05T07:43:57.358Z,43.37
2018-06-05T07:46:28.566Z,48.90
2018-06-05T07:48:57.619Z,44.73
2018-06-05T07:51:26.383Z,43.13
2018-06-05T07:53:55.801Z,42.90
2018-06-05T07:56:24.983Z,41.33
2018-06-05T07:58:53.875Z,43.50
2018-06-05T08:01:23.735Z,45.87
2018-06-05T08:03:52.937Z,44.40
2018-06-05T08:06:22.432Z,40.23
2018-06-05T08:08:52.213Z,42.50
2018-06-05T08:11:21.702Z,42.27
2018-06-05T08:13:51.108Z,41.53
2018-06-05T08:16:20.442Z,41.00
2018-06-05T08:18:50.241Z,40.47
2018-06-05T08:21:19.149Z,39.60
2018-06-05T08:23:49.469Z,41.60
2018-06-05T08:26:18.897Z,40.80
2018-06-05T08:28:48.025Z,40.90
2018-06-05T08:31:17.518Z,39.17
2018-06-05T08:33:46.029Z,39.30
2018-06-05T08:36:15.939Z,42.37
2018-06-05T08:38:44.904Z,40.17
2018-06-05T08:41:14.213Z,42.57
2018-06-05T08:43:43.422Z,40.33
2018-06-05T08:46:12.516Z,41.23
2018-06-05T08:48:41.196Z,36.77
2018-06-05T08:51:09.849Z,38.00
2018-06-05T08:53:38.582Z,38.10
2018-06-05T08:56:08.575Z,36.07
2018-06-05T08:58:39.203Z,40.80
2018-06-05T09:01:08.137Z,39.97
2018-06-05T09:03:36.772Z,40.57
2018-06-05T09:06:06.796Z,37.77
2018-06-05T09:08:36.318Z,42.20
2018-06-05T09:11:05.105Z,39.67
2018-06-05T09:13:35.292Z,38.27
2018-06-05T09:16:04.951Z,36.30
2018-06-05T09:18:35.332Z,40.17
2018-06-05T09:21:04.710Z,42.87
2018-06-05T09:23:34.117Z,39.33
2018-06-05T09:26:03.459Z,39.13
2018-06-05T09:28:33.571Z,38.13
2018-06-05T09:31:03.489Z,37.03
2018-06-05T09:33:32.425Z,39.47
2018-06-05T09:36:01.624Z,39.03
2018-06-05T09:38:31.900Z,37.30
2018-06-05T09:41:00.946Z,35.20
2018-06-05T09:43:31.534Z,37.60
2018-06-05T09:46:00.624Z,39.73
2018-06-05T09:48:30.296Z,40.60
2018-06-05T09:50:59.281Z,44.63
2018-06-05T09:53:29.386Z,39.47
2018-06-05T09:55:58.441Z,41.00
2018-06-05T09:58:28.264Z,37.63
2018-06-05T10:00:59.210Z,38.97
2018-06-05T10:03:28.249Z,42.13
2018-06-05T10:05:58.055Z,41.10
2018-06-05T10:08:26.993Z,39.10
2018-06-05T10:10:56.616Z,41.47
2018-06-05T10:13:26.363Z,43.13
2018-06-05T10:15:55.800Z,41.07
2018-06-05T10:18:25.362Z,43.67
2018-06-05T10:20:55.325Z,42.93
2018-06-05T10:23:24.374Z,43.53
2018-06-05T10:25:54.348Z,41.33
2018-06-05T10:28:23.367Z,41.10
2018-06-05T10:30:52.434Z,46.90
2018-06-05T10:33:22.383Z,42.33
2018-06-05T10:35:51.408Z,43.00
2018-06-05T10:38:23.674Z,43.37
2018-06-05T10:40:52.892Z,42.70
2018-06-05T10:43:21.617Z,50.93
2018-06-05T10:45:50.972Z,42.33
2018-06-05T10:48:20.374Z,43.27
2018-06-05T10:50:49.602Z,42.57
2018-06-05T10:53:18.984Z,42.03
2018-06-05T10:55:48.552Z,45.53
2018-06-05T10:58:17.796Z,42.57
2018-06-05T11:00:46.850Z,46.57
2018-06-05T11:03:17.215Z,46.63
2018-06-05T11:05:46.922Z,49.47
2018-06-05T11:08:16.731Z,50.17
2018-06-05T11:10:46.171Z,49.73
2018-06-05T11:13:14.952Z,54.17
2018-06-05T11:15:43.823Z,45.20
2018-06-05T11:18:13.715Z,48.10
2018-06-05T11:20:42.396Z,48.87
2018-06-05T11:23:12.018Z,48.70
2018-06-05T11:25:42.360Z,46.90
2018-06-05T11:28:11.599Z,61.67
2018-06-05T11:30:41.990Z,64.50
2018-06-05T11:33:11.477Z,48.43
2018-06-05T11:35:40.635Z,50.97
2018-06-05T11:38:10.189Z,49.63
2018-06-05T11:40:39.758Z,51.23
2018-06-05T11:43:08.765Z,50.33
2018-06-05T11:45:37.915Z,45.93
2018-06-05T11:48:06.819Z,45.90
2018-06-05T11:50:36.276Z,44.73
2018-06-05T11:53:05.684Z,52.57
2018-06-05T11:55:34.681Z,56.00
2018-06-05T11:58:03.413Z,55.23
2018-06-05T12:00:32.937Z,55.37
2018-06-05T12:03:02.144Z,55.97
2018-06-05T12:05:31.720Z,56.90
2018-06-05T12:08:00.444Z,59.40
2018-06-05T12:10:29.417Z,59.80
2018-06-05T12:12:59.596Z,64.23
2018-06-05T12:15:28.444Z,68.23
2018-06-05T12:17:57.043Z,63.37
2018-06-05T12:20:27.801Z,60.67
2018-06-05T12:22:56.789Z,69.77
2018-06-05T12:25:25.616Z,63.27
2018-06-05T12:27:54.299Z,65.57
2018-06-05T12:30:22.945Z,70.37
2018-06-05T12:32:51.567Z,64.90
2018-06-05T12:35:20.201Z,59.43
2018-06-05T12:37:49.864Z,56.57
2018-06-05T12:40:18.510Z,62.13
2018-06-05T12:42:47.145Z,58.00
2018-06-05T12:48:06.142Z,63.37
2018-06-05T12:50:35.190Z,68.37
2018-06-05T12:53:04.528Z,59.00
2018-06-05T12:55:33.410Z,59.43
2018-06-05T12:58:02.663Z,57.90
2018-06-05T13:00:31.616Z,66.47
2018-06-05T13:03:00.857Z,67.10
2018-06-05T13:05:29.861Z,64.70
2018-06-05T13:07:58.925Z,62.57
2018-06-05T13:10:28.135Z,64.43
2018-06-05T13:12:56.742Z,68.77
2018-06-05T13:15:25.564Z,62.07
2018-06-05T13:17:54.538Z,68.77
2018-06-05T13:20:23.855Z,72.67
2018-06-05T13:22:52.495Z,66.50
2018-06-05T13:25:21.037Z,68.43
2018-06-05T13:27:49.648Z,61.40
2018-06-05T13:30:19.059Z,65.47
2018-06-05T13:32:48.957Z,69.80
2018-06-05T13:35:17.497Z,63.80
2018-06-05T13:37:46.003Z,70.17
2018-06-05T13:40:14.899Z,74.03
2018-06-05T13:42:43.959Z,75.60
2018-06-05T13:45:12.964Z,67.83
2018-06-05T13:47:41.621Z,67.77
2018-06-05T13:50:10.375Z,64.77
2018-06-05T13:52:39.523Z,57.83
2018-06-05T13:55:08.869Z,60.53
2018-06-05T13:57:37.326Z,55.50
2018-06-05T14:00:06.804Z,58.50
2018-06-05T14:15:41.166Z,60.87
2018-06-05T14:18:10.239Z,56.30
2018-06-05T14:20:38.926Z,58.50
2018-06-05T14:23:07.632Z,60.83
2018-06-05T14:25:36.655Z,58.07
2018-06-05T14:28:05.486Z,60.90
2018-06-05T14:30:33.982Z,65.47
2018-06-05T14:33:06.921Z,61.67
2018-06-05T14:35:35.532Z,57.97
2018-06-05T14:38:04.776Z,59.20
2018-06-05T14:40:33.304Z,57.10
2018-06-05T14:43:02.514Z,66.03
2018-06-05T14:45:31.551Z,55.57
2018-06-05T14:48:00.795Z,53.80
2018-06-05T14:50:29.736Z,56.97
2018-06-05T14:52:58.673Z,61.63
2018-06-05T14:55:28.152Z,57.57
2018-06-05T14:57:57.088Z,64.07
2018-06-05T15:00:26.206Z,63.37
2018-06-05T15:02:55.189Z,67.97
2018-06-05T15:05:24.677Z,70.07
2018-06-05T15:07:54.594Z,64.90
2018-06-05T15:10:23.316Z,64.00
2018-06-05T15:12:53.551Z,61.40
2018-06-05T15:15:23.462Z,65.63
2018-06-05T15:17:52.696Z,65.17
2018-06-05T15:20:22.773Z,64.80
2018-06-05T15:22:52.519Z,65.40
2018-06-05T15:25:21.128Z,61.50
2018-06-05T15:27:50.403Z,56.63
2018-06-05T15:30:19.425Z,60.37
2018-06-05T15:32:47.922Z,56.13
2018-06-05T15:35:17.952Z,54.60
2018-06-05T15:37:46.448Z,61.23
2018-06-05T15:40:15.112Z,60.30
2018-06-05T15:42:43.998Z,59.53
2018-06-05T15:45:12.720Z,60.50
2018-06-05T15:47:42.124Z,53.13
2018-06-05T15:50:11.602Z,59.83
2018-06-05T15:52:40.313Z,61.07
2018-06-05T15:55:08.971Z,56.33
2018-06-05T15:57:37.720Z,59.47
2018-06-05T16:00:07.200Z,52.70
2018-06-05T16:02:35.760Z,56.87
2018-06-05T16:05:05.242Z,56.10
2018-06-05T16:07:33.849Z,54.20
2018-06-05T16:10:02.847Z,55.13
2018-06-05T16:12:31.305Z,58.63
2018-06-05T16:15:00.208Z,61.97
2018-06-05T16:17:30.068Z,58.17
2018-06-05T16:19:58.730Z,64.33
2018-06-05T16:22:28.880Z,54.43
2018-06-05T16:24:57.434Z,58.67
2018-06-05T16:27:26.444Z,61.90
2018-06-05T16:29:55.399Z,59.93
2018-06-05T16:32:24.561Z,57.53
2018-06-05T16:34:54.516Z,58.83
2018-06-05T16:37:23.677Z,62.67
2018-06-05T16:39:52.238Z,59.13
2018-06-05T16:42:21.336Z,62.33
2018-06-05T16:44:51.613Z,63.97
2018-06-05T16:47:20.860Z,63.47
2018-06-05T16:49:49.341Z,63.20
2018-06-05T16:52:18.231Z,67.77
2018-06-05T16:54:47.738Z,63.80
2018-06-05T16:57:17.138Z,69.07
2018-06-05T16:59:45.506Z,66.50
2018-06-05T17:02:15.221Z,66.23
2018-06-05T17:04:43.721Z,72.80
2018-06-05T17:07:12.231Z,64.67
2018-06-05T17:09:41.321Z,66.00
2018-06-05T17:12:10.196Z,64.73
2018-06-05T17:14:38.886Z,62.67
2018-06-05T17:17:07.834Z,59.47
2018-06-05T17:19:36.844Z,59.60
2018-06-05T17:22:05.667Z,67.33
2018-06-05T17:24:35.121Z,60.97
2018-06-05T17:27:03.925Z,58.00
2018-06-05T17:29:32.659Z,55.57
2018-06-05T17:32:01.137Z,59.80
2018-06-05T17:34:29.748Z,54.00
2018-06-05T17:36:58.990Z,52.43
2018-06-05T17:39:28.119Z,52.53
2018-06-05T17:41:57.690Z,51.90
2018-06-05T17:44:26.616Z,47.80
2018-06-05T17:46:55.612Z,46.60
2018-06-05T17:49:24.185Z,45.17
2018-06-05T17:51:53.228Z,39.77
2018-06-05T17:54:22.270Z,42.50
2018-06-05T17:56:50.745Z,37.23
2018-06-05T17:59:20.293Z,36.33
2018-06-05T18:01:48.897Z,39.67
2018-06-05T18:04:17.419Z,35.70
2018-06-05T18:06:45.963Z,40.37
2018-06-05T18:09:14.429Z,38.73
2018-06-05T18:11:43.580Z,39.83
2018-06-05T18:14:12.890Z,38.87
2018-06-05T18:16:43.178Z,37.40
2018-06-05T18:19:13.027Z,39.00
2018-06-05T18:21:43.266Z,38.07
2018-06-05T18:24:13.273Z,36.90
2018-06-05T18:26:42.366Z,39.67
2018-06-05T18:29:11.911Z,39.73
2018-06-05T18:31:42.205Z,41.13
2018-06-05T18:34:11.756Z,38.67
2018-06-05T18:36:40.626Z,38.80
2018-06-05T18:39:09.242Z,42.03
2018-06-05T18:41:38.467Z,44.77
2018-06-05T18:44:07.423Z,41.63
2018-06-05T18:46:35.997Z,41.00
2018-06-05T18:49:04.532Z,42.03
2018-06-05T18:51:33.240Z,44.63
2018-06-05T18:54:01.803Z,40.50
2018-06-05T19:06:16.523Z,41.27
2018-06-05T19:08:45.588Z,43.30
2018-06-05T19:11:14.356Z,44.87
2018-06-05T19:13:42.898Z,42.30
2018-06-05T19:16:12.553Z,41.53
2018-06-05T19:18:41.236Z,47.00
2018-06-05T19:21:09.686Z,38.70
2018-06-05T19:23:38.168Z,39.30
2018-06-05T19:26:06.637Z,46.23
2018-06-05T19:28:35.857Z,42.57
2018-06-05T19:31:04.803Z,43.97
2018-06-05T19:33:34.312Z,41.57
2018-06-05T19:36:03.577Z,42.73
2018-06-05T19:38:32.095Z,44.50
2018-06-05T19:41:01.222Z,45.20
2018-06-05T19:43:30.650Z,48.67
2018-06-05T19:46:00.041Z,47.07
2018-06-05T19:48:29.419Z,45.37
2018-06-05T19:50:57.973Z,45.20
2018-06-05T19:53:27.388Z,43.53
2018-06-05T19:55:56.001Z,48.37
2018-06-05T19:58:24.392Z,46.33
2018-06-05T20:00:53.011Z,46.03
2018-06-05T20:03:21.895Z,44.93
2018-06-05T20:05:50.425Z,46.33
2018-06-05T20:08:19.613Z,48.57
2018-06-05T20:10:48.483Z,46.30
2018-06-05T20:13:17.050Z,45.07
2018-06-05T20:15:45.534Z,47.97
2018-06-05T20:18:15.709Z,47.57
2018-06-05T20:20:44.213Z,51.40
2018-06-05T20:23:13.446Z,51.20
2018-06-05T20:25:42.137Z,51.07
2018-06-05T20:28:11.573Z,57.47
2018-06-05T20:30:40.072Z,52.37
2018-06-05T20:33:08.860Z,50.77
2018-06-05T20:35:37.702Z,52.40
2018-06-05T20:38:06.494Z,54.53
2018-06-05T20:40:34.974Z,55.30
2018-06-05T20:43:04.224Z,49.73
2018-06-05T20:45:32.787Z,51.20
2018-06-05T20:48:01.755Z,55.63
2018-06-05T20:50:30.577Z,51.73
2018-06-05T20:52:59.122Z,53.20
2018-06-05T20:55:27.642Z,58.20
2018-06-05T20:57:57.544Z,51.63
2018-06-05T21:00:25.708Z,58.10
2018-06-05T21:02:54.191Z,55.90
2018-06-05T21:05:23.372Z,59.00
2018-06-05T21:07:52.178Z,58.70
2018-06-05T21:10:21.110Z,56.33
2018-06-05T21:12:50.476Z,61.50
2018-06-05T21:25:09.022Z,57.57
2018-06-05T21:27:37.887Z,63.07
2018-06-05T21:30:07.404Z,58.23
2018-06-05T21:32:36.222Z,59.13
2018-06-05T21:35:04.773Z,60.37
2018-06-05T21:37:33.601Z,64.53
2018-06-05T21:40:02.586Z,65.50
2018-06-05T21:42:31.049Z,59.47
2018-06-05T21:44:59.796Z,60.53
2018-06-05T21:47:28.269Z,65.00
2018-06-05T21:49:57.349Z,68.47
2018-06-05T21:52:26.127Z,60.50
2018-06-05T21:54:54.660Z,64.33
2018-06-05T21:57:24.173Z,64.23
2018-06-05T21:59:52.678Z,63.70
2018-06-05T22:02:21.869Z,65.07
2018-06-05T22:04:50.313Z,69.07
2018-06-05T22:07:19.330Z,65.07
2018-06-05T22:09:47.754Z,59.33
2018-06-05T22:12:16.720Z,64.63
2018-06-05T22:14:46.113Z,61.90
2018-06-05T22:17:16.103Z,68.50
2018-06-05T22:19:44.592Z,65.93
2018-06-05T22:22:13.081Z,61.97
2018-06-05T22:24:42.204Z,61.97
2018-06-05T22:27:10.643Z,63.00
2018-06-05T22:29:39.794Z,60.50
2018-06-05T22:32:08.325Z,59.40
2018-06-05T22:34:36.949Z,68.23
2018-06-05T22:37:05.710Z,62.30
2018-06-05T22:39:34.389Z,64.73
2018-06-05T22:42:04.330Z,59.03
2018-06-05T22:44:33.115Z,65.43
2018-06-05T22:47:01.410Z,61.13
2018-06-05T22:49:30.994Z,68.80
2018-06-05T22:51:59.404Z,58.97
2018-06-05T22:54:27.977Z,60.80
2018-06-05T22:56:56.458Z,58.97
2018-06-05T22:59:26.216Z,67.43
2018-06-05T23:01:55.263Z,62.93
2018-06-05T23:04:23.967Z,62.43
2018-06-05T23:06:52.684Z,73.50
2018-06-05T23:09:21.109Z,60.37
2018-06-05T23:11:49.917Z,65.47
2018-06-05T23:14:18.345Z,64.77
2018-06-05T23:16:47.594Z,68.67
2018-06-05T23:19:16.060Z,61.07
2018-06-05T23:21:45.368Z,61.27
2018-06-05T23:24:13.832Z,61.30
2018-06-05T23:26:42.308Z,60.30
2018-06-05T23:29:11.186Z,65.43
2018-06-05T23:31:39.974Z,67.97
2018-06-05T23:34:08.418Z,62.50
2018-06-05T23:36:37.001Z,59.17
2018-06-05T23:39:07.746Z,62.50
2018-06-05T23:41:36.564Z,62.67
2018-06-05T23:44:05.013Z,63.47
2018-06-05T23:46:33.713Z,67.47
2018-06-05T23:49:02.900Z,63.67
2018-06-05T23:51:31.688Z,65.17
2018-06-05T23:54:00.169Z,64.17
2018-06-05T23:56:28.579Z,59.27
2018-06-05T23:58:57.065Z,66.17
